Time;durP1;ratioP1;P1;durP2;ratioP2;P2;SDS_P1;SDS_P2;PMS_P1;PMS_P2;Temp;Humidity;BMP_temperature;BMP_pressure;BME280_temperature;BME280_humidity;BME280_pressure;Samples;Min_cycle;Max_cycle;Signal;HPM_P1;HPM_P2
2024/01/16 00:03:40;;;;;;;;;;;;;;;19.39;24.13;94853.63;10501063;28;3000;-70
2024/01/16 00:08:40;;;;;;;;;;;;;;;19.36;24.32;94864.72;10465830;28;3139;-70
2024/01/16 00:13:41;;;;;;;;;;;;;;;19.34;24.08;94864.25;10469292;28;2938;-71
2024/01/16 00:18:41;;;;;;;;;;;;;;;19.33;24.13;94873.19;10471817;28;3068;-69
2024/01/16 00:23:41;;;;;;;;;;;;;;;19.32;24.22;94876.84;10470379;28;2955;-70
2024/01/16 00:28:42;;;;;;;;;;;;;;;19.30;24.08;94879.00;10470763;28;3022;-69
2024/01/16 00:33:43;;;;;;;;;;;;;;;19.29;24.13;94877.41;10471901;28;2886;-69
2024/01/16 00:38:43;;;;;;;;;;;;;;;19.27;24.06;94892.69;10467449;28;2961;-70
2024/01/16 00:43:43;;;;;;;;;;;;;;;19.27;24.09;94903.19;10471229;28;2898;-71
2024/01/16 00:48:44;;;;;;;;;;;;;;;19.24;23.85;94895.91;10502995;28;2958;-69
2024/01/16 00:53:44;;;;;;;;;;;;;;;19.21;24.06;94906.97;10465235;28;2961;-70
2024/01/16 00:58:44;;;;;;;;;;;;;;;19.21;24.15;94914.06;10466609;28;2899;-70
2024/01/16 01:03:45;;;;;;;;;;;;;;;19.19;24.06;94914.34;10472906;28;2888;-70
2024/01/16 01:08:45;;;;;;;;;;;;;;;19.22;24.02;94934.03;10483297;28;2883;-73
2024/01/16 01:13:46;;;;;;;;;;;;;;;19.20;23.98;94938.78;10466914;28;3281;-71
2024/01/16 01:18:46;;;;;;;;;;;;;;;19.16;24.01;94928.06;10465457;28;3363;-71
2024/01/16 01:23:46;;;;;;;;;;;;;;;19.15;23.79;94931.75;10468084;28;3090;-71
2024/01/16 01:28:47;;;;;;;;;;;;;;;19.14;23.85;94935.44;10464292;28;2870;-69
2024/01/16 01:33:47;;;;;;;;;;;;;;;19.12;23.80;94945.47;10468569;28;2882;-70
2024/01/16 01:38:47;;;;;;;;;;;;;;;19.14;23.86;94959.09;10465405;28;3217;-69
2024/01/16 01:43:48;;;;;;;;;;;;;;;19.13;24.09;94967.22;10468340;28;2882;-70
2024/01/16 01:48:48;;;;;;;;;;;;;;;19.13;23.94;94965.41;10470053;28;2970;-70
2024/01/16 01:53:49;;;;;;;;;;;;;;;19.10;23.88;94963.31;10460798;28;2843;-71
2024/01/16 01:58:52;;;;;;;;;;;;;;;19.10;23.87;94978.31;10466878;28;2854;-70
2024/01/16 02:03:54;;;;;;;;;;;;;;;19.10;23.75;94968.56;10459697;28;3076;-71
2024/01/16 02:08:55;;;;;;;;;;;;;;;19.10;23.68;94971.19;10499120;28;2881;-69
2024/01/16 02:13:55;;;;;;;;;;;;;;;19.10;23.82;94986.19;10468395;28;2829;-70
2024/01/16 02:18:55;;;;;;;;;;;;;;;19.08;23.77;94989.09;10472777;28;3171;-71
2024/01/16 02:23:56;;;;;;;;;;;;;;;19.08;23.75;94981.22;10475476;28;3028;-69
2024/01/16 02:28:56;;;;;;;;;;;;;;;19.08;23.69;94983.84;10472783;28;2953;-69
2024/01/16 02:33:56;;;;;;;;;;;;;;;19.06;23.70;94985.97;10473301;28;2842;-70
2024/01/16 02:38:57;;;;;;;;;;;;;;;19.07;23.62;94992.78;10467551;28;3105;-70
2024/01/16 02:43:57;;;;;;;;;;;;;;;19.06;23.97;94996.47;10472194;28;2921;-69
2024/01/16 02:48:57;;;;;;;;;;;;;;;19.08;23.57;95001.47;10468989;28;3021;-70
2024/01/16 02:53:57;;;;;;;;;;;;;;;19.06;23.78;94999.09;10474307;28;2948;-70
2024/01/16 02:58:58;;;;;;;;;;;;;;;19.05;23.69;94989.66;10471887;28;3059;-69
2024/01/16 03:03:58;;;;;;;;;;;;;;;19.06;23.68;94996.47;10473298;28;2957;-69
2024/01/16 03:08:58;;;;;;;;;;;;;;;19.06;23.93;94996.47;10470695;28;3067;-70
2024/01/16 03:13:59;;;;;;;;;;;;;;;19.07;23.83;95010.41;10472421;28;2881;-69
2024/01/16 03:18:59;;;;;;;;;;;;;;;19.04;23.85;95001.22;10502963;28;2979;-69
2024/01/16 03:24:00;;;;;;;;;;;;;;;19.07;23.62;95005.13;10473686;28;2930;-69
2024/01/16 03:29:00;;;;;;;;;;;;;;;19.08;23.66;95009.34;10467913;28;3042;-70
2024/01/16 03:34:01;;;;;;;;;;;;;;;19.08;23.67;95014.59;10469765;28;2970;-69
2024/01/16 03:39:02;;;;;;;;;;;;;;;19.06;23.70;95020.09;10470238;28;2885;-69
2024/01/16 03:44:02;;;;;;;;;;;;;;;19.07;23.71;95021.69;10472030;28;2918;-69
2024/01/16 03:49:02;;;;;;;;;;;;;;;19.07;23.66;95016.44;10451350;28;3153;-70
2024/01/16 03:54:04;;;;;;;;;;;;;;;19.08;23.60;95014.59;10468152;28;2976;-69
2024/01/16 03:59:04;;;;;;;;;;;;;;;19.07;23.83;95008.56;10468975;28;2917;-69
2024/01/16 04:04:07;;;;;;;;;;;;;;;19.07;23.68;95005.94;10470759;28;3005;-70
2024/01/16 04:09:08;;;;;;;;;;;;;;;19.07;23.75;95005.94;10470077;28;2895;-69
2024/01/16 04:14:08;;;;;;;;;;;;;;;19.07;23.67;95008.56;10469056;28;3060;-68
2024/01/16 04:19:08;;;;;;;;;;;;;;;19.06;23.60;95009.59;10495923;28;2911;-70
2024/01/16 04:24:08;;;;;;;;;;;;;;;19.07;23.52;95010.41;10468967;28;2981;-70
2024/01/16 04:29:10;;;;;;;;;;;;;;;19.06;23.66;95008.84;10463730;28;3005;-69
2024/01/16 04:34:10;;;;;;;;;;;;;;;19.07;23.59;95005.94;10499523;28;2834;-69
2024/01/16 04:39:11;;;;;;;;;;;;;;;19.06;23.63;94998.34;10468328;28;3073;-69
2024/01/16 04:44:11;;;;;;;;;;;;;;;19.07;23.35;94998.06;10468420;28;3087;-69
2024/01/16 04:49:11;;;;;;;;;;;;;;;19.05;23.47;94992.28;10465563;28;3622;-69
2024/01/16 04:54:12;;;;;;;;;;;;;;;19.05;23.46;94991.50;10466265;28;2957;-69
2024/01/16 04:59:12;;;;;;;;;;;;;;;19.07;23.46;94994.63;10466458;28;2957;-68
2024/01/16 05:04:12;;;;;;;;;;;;;;;19.05;23.53;94994.13;10467697;28;3136;-69
2024/01/16 05:09:13;;;;;;;;;;;;;;;19.05;23.50;94994.91;10470411;28;2980;-69
2024/01/16 05:14:13;;;;;;;;;;;;;;;19.07;23.46;94989.38;10467038;28;3036;-68
2024/01/16 05:19:13;;;;;;;;;;;;;;;19.04;23.57;94995.97;10467696;28;2838;-69
2024/01/16 05:24:13;;;;;;;;;;;;;;;19.06;23.31;94999.09;10467839;28;2942;-69
2024/01/16 05:29:14;;;;;;;;;;;;;;;19.04;23.41;94995.97;10463976;28;3008;-69
2024/01/16 05:34:15;;;;;;;;;;;;;;;19.05;23.47;95002.81;10471244;28;2984;-69
2024/01/16 05:39:17;;;;;;;;;;;;;;;19.03;23.36;94991.78;10468149;28;2870;-70
2024/01/16 05:44:17;;;;;;;;;;;;;;;19.05;23.46;94996.75;10495981;28;3069;-69
2024/01/16 05:49:17;;;;;;;;;;;;;;;19.02;23.47;95003.34;10467570;28;3129;-69
2024/01/16 05:54:18;;;;;;;;;;;;;;;19.03;23.41;94993.63;10474437;28;3002;-69
2024/01/16 05:59:18;;;;;;;;;;;;;;;19.03;23.30;94991.00;10484431;28;3022;-69
2024/01/16 06:04:19;;;;;;;;;;;;;;;19.02;23.46;94992.84;10475348;28;3081;-68
2024/01/16 06:09:19;;;;;;;;;;;;;;;19.01;23.15;94990.50;10479185;28;2982;-69
2024/01/16 06:14:21;;;;;;;;;;;;;;;19.02;23.46;94990.22;10478868;28;2973;-69
2024/01/16 06:19:21;;;;;;;;;;;;;;;19.02;23.34;94987.59;10477065;28;3016;-70
2024/01/16 06:24:22;;;;;;;;;;;;;;;19.02;23.35;94987.59;10474403;28;3110;-71
2024/01/16 06:29:22;;;;;;;;;;;;;;;18.99;23.31;94984.75;10473755;28;3072;-70
2024/01/16 06:34:22;;;;;;;;;;;;;;;18.97;23.29;94992.91;10476485;28;3064;-68
2024/01/16 06:39:22;;;;;;;;;;;;;;;18.97;23.12;95002.63;10473718;28;2937;-67
2024/01/16 06:44:23;;;;;;;;;;;;;;;18.93;23.32;94993.75;10473298;28;3122;-68
2024/01/16 06:49:23;;;;;;;;;;;;;;;18.89;23.37;94988.28;10465994;28;3096;-68
2024/01/16 06:54:23;;;;;;;;;;;;;;;18.86;23.14;94995.94;10507464;27;2937;-68
2024/01/16 06:59:24;;;;;;;;;;;;;;;18.83;23.17;94999.13;10468993;28;3009;-70
2024/01/16 07:04:24;;;;;;;;;;;;;;;18.84;23.17;94995.44;10471921;28;2906;-70
2024/01/16 07:09:25;;;;;;;;;;;;;;;18.84;23.34;94996.22;10466507;28;2980;-70
2024/01/16 07:14:25;;;;;;;;;;;;;;;18.85;23.33;94997.00;10506650;28;3019;-68
2024/01/16 07:19:26;;;;;;;;;;;;;;;18.85;23.26;94986.50;10470198;28;2906;-69
2024/01/16 07:24:26;;;;;;;;;;;;;;;18.88;23.34;94988.56;10468195;28;2918;-68
2024/01/16 07:29:26;;;;;;;;;;;;;;;18.88;23.15;94999.06;10499010;28;2927;-69
2024/01/16 07:34:27;;;;;;;;;;;;;;;18.89;23.47;95009.31;10470022;28;2941;-68
2024/01/16 07:39:27;;;;;;;;;;;;;;;18.91;23.32;95011.63;10469004;28;3136;-69
2024/01/16 07:44:27;;;;;;;;;;;;;;;18.91;23.31;95012.44;10474397;28;2961;-69
2024/01/16 07:49:27;;;;;;;;;;;;;;;18.92;23.36;95008.72;10471681;28;2968;-70
2024/01/16 07:54:28;;;;;;;;;;;;;;;18.93;23.23;95005.06;10470314;28;2924;-71
2024/01/16 07:59:28;;;;;;;;;;;;;;;18.92;23.30;95008.72;10474179;28;2865;-68
2024/01/16 08:04:28;;;;;;;;;;;;;;;18.93;23.28;94999.81;10473030;28;2969;-68
2024/01/16 08:09:29;;;;;;;;;;;;;;;18.95;23.42;95008.19;10474433;28;3097;-68
2024/01/16 08:14:29;;;;;;;;;;;;;;;18.95;23.43;95008.19;10472763;28;2977;-69
2024/01/16 08:19:29;;;;;;;;;;;;;;;18.95;23.37;95010.00;10477869;28;3072;-69
2024/01/16 08:24:30;;;;;;;;;;;;;;;18.96;23.55;95014.97;10477879;28;2821;-69
2024/01/16 08:29:31;;;;;;;;;;;;;;;18.97;23.65;95016.56;10503970;28;2795;-71
2024/01/16 08:34:31;;;;;;;;;;;;;;;18.98;23.56;95007.59;10466627;28;2987;-69
2024/01/16 08:39:33;;;;;;;;;;;;;;;18.98;23.70;95015.47;10471637;28;3014;-68
2024/01/16 08:44:34;;;;;;;;;;;;;;;18.99;23.90;95008.38;10478453;28;2882;-69
2024/01/16 08:49:34;;;;;;;;;;;;;;;18.99;23.85;95003.94;10474522;28;2897;-68
2024/01/16 08:54:34;;;;;;;;;;;;;;;18.99;23.87;94998.69;10481573;28;2945;-69
2024/01/16 08:59:35;;;;;;;;;;;;;;;19.00;23.79;94994.97;10469401;28;2893;-68
2024/01/16 09:04:35;;;;;;;;;;;;;;;19.03;23.98;94980.50;10468366;28;2949;-67
2024/01/16 09:09:35;;;;;;;;;;;;;;;19.01;23.78;94980.78;10472220;28;2893;-68
2024/01/16 09:14:36;;;;;;;;;;;;;;;19.02;23.79;94978.94;10464158;28;2989;-68
2024/01/16 09:19:36;;;;;;;;;;;;;;;19.03;23.77;94972.63;10472346;28;2837;-69
2024/01/16 09:24:36;;;;;;;;;;;;;;;19.04;23.75;94979.44;10468864;28;3028;-68
2024/01/16 09:29:36;;;;;;;;;;;;;;;19.04;23.84;94976.81;10471703;28;2934;-69
2024/01/16 09:34:37;;;;;;;;;;;;;;;19.06;23.95;94972.06;10466852;28;2962;-69
2024/01/16 09:39:37;;;;;;;;;;;;;;;19.06;23.91;94972.84;10470919;28;2994;-67
2024/01/16 09:44:38;;;;;;;;;;;;;;;19.08;23.81;94970.69;10466180;28;2958;-68
2024/01/16 09:49:39;;;;;;;;;;;;;;;19.09;23.71;94969.66;10471540;28;3074;-69
2024/01/16 09:54:39;;;;;;;;;;;;;;;19.10;23.81;94970.44;10497758;28;2950;-69
2024/01/16 09:59:39;;;;;;;;;;;;;;;19.09;23.94;94969.66;10469215;28;2934;-68
2024/01/16 10:04:41;;;;;;;;;;;;;;;19.10;23.92;94975.69;10465871;28;2969;-69
2024/01/16 10:09:42;;;;;;;;;;;;;;;19.10;24.00;94962.56;10462040;28;2922;-68
2024/01/16 10:14:43;;;;;;;;;;;;;;;19.08;23.87;94957.56;10495606;28;2948;-67
2024/01/16 10:19:50;;;;;;;;;;;;;;;19.10;23.83;94960.69;10494862;28;3017;-68
2024/01/16 10:25:10;;;;;;;;;;;;;;;19.08;23.96;94957.56;10470233;28;3065;-68
2024/01/16 10:30:10;;;;;;;;;;;;;;;19.09;24.15;94953.88;10472290;28;2797;-68
2024/01/16 10:35:11;;;;;;;;;;;;;;;19.07;24.24;94953.41;10465408;28;2914;-69
2024/01/16 10:40:18;;;;;;;;;;;;;;;19.09;23.95;94940.75;10471359;28;2945;-68
2024/01/16 10:45:19;;;;;;;;;;;;;;;19.09;23.99;94925.00;10488090;28;3012;-68
2024/01/16 10:50:19;;;;;;;;;;;;;;;19.09;23.96;94927.63;10476712;28;2994;-68
2024/01/16 10:55:21;;;;;;;;;;;;;;;19.10;23.92;94929.16;10502743;28;3162;-68
2024/01/16 11:00:21;;;;;;;;;;;;;;;19.09;24.08;94925.00;10468650;28;3096;-68
2024/01/16 11:05:21;;;;;;;;;;;;;;;19.07;24.13;94927.13;10475881;28;3016;-68
2024/01/16 11:10:22;;;;;;;;;;;;;;;19.11;24.03;94927.34;10502787;28;2977;-69
2024/01/16 11:15:22;;;;;;;;;;;;;;;19.10;24.08;94926.53;10469443;28;2929;-68
2024/01/16 11:20:23;;;;;;;;;;;;;;;19.14;24.00;94924.94;10471728;28;3028;-68
2024/01/16 11:25:23;;;;;;;;;;;;;;;19.14;24.28;94911.00;10471874;28;2957;-68
2024/01/16 11:30:30;;;;;;;;;;;;;;;19.13;24.46;94904.19;10472378;28;2979;-68
2024/01/16 11:35:33;;;;;;;;;;;;;;;19.13;24.24;94899.72;10470156;28;2942;-67
2024/01/16 11:40:34;;;;;;;;;;;;;;;19.13;24.88;94894.47;10501967;28;3067;-68
2024/01/16 11:45:37;;;;;;;;;;;;;;;19.16;25.09;94886.03;10469072;28;2934;-67
2024/01/16 11:50:37;;;;;;;;;;;;;;;19.19;24.70;94880.19;10470478;28;2837;-68
2024/01/16 11:55:53;;;;;;;;;;;;;;;19.22;24.96;94887.53;10472360;28;2965;-67
2024/01/16 12:00:53;;;;;;;;;;;;;;;19.23;25.12;94891.69;10508811;28;2863;-70
2024/01/16 12:05:57;;;;;;;;;;;;;;;19.23;25.23;94886.44;10487665;28;2248;-71
2024/01/16 12:10:57;;;;;;;;;;;;;;;19.25;24.62;94855.41;10486037;28;1502;-68
2024/01/16 12:16:01;;;;;;;;;;;;;;;19.25;24.94;94844.09;10488586;28;1537;-68
2024/01/16 12:21:09;;;;;;;;;;;;;;;19.26;24.93;94838.59;10515496;28;1754;-68
2024/01/16 12:26:09;;;;;;;;;;;;;;;19.28;25.17;94828.56;10486268;28;1461;-68
2024/01/16 12:31:09;;;;;;;;;;;;;;;19.28;25.75;94818.06;10484583;28;2861;-70
2024/01/16 12:36:10;;;;;;;;;;;;;;;19.30;25.38;94815.94;10516121;28;2746;-68
2024/01/16 12:41:11;;;;;;;;;;;;;;;19.32;25.19;94808.53;10482099;28;2357;-69
2024/01/16 12:46:11;;;;;;;;;;;;;;;19.31;24.96;94804.31;10484667;28;1486;-69
2024/01/16 12:51:12;;;;;;;;;;;;;;;19.32;24.88;94803.28;10518379;28;2758;-69
2024/01/16 12:56:12;;;;;;;;;;;;;;;19.34;25.39;94795.91;10513534;28;2298;-70
2024/01/16 13:01:21;;;;;;;;;;;;;;;19.37;25.85;94805.84;10481202;28;2021;-66
2024/01/16 13:06:22;;;;;;;;;;;;;;;19.41;25.90;94804.19;10489907;28;1680;-68
2024/01/16 13:11:22;;;;;;;;;;;;;;;19.41;26.65;94785.03;10482794;28;2795;-67
2024/01/16 13:16:22;;;;;;;;;;;;;;;19.40;26.07;94780.84;10468964;28;2070;-67
2024/01/16 13:21:23;;;;;;;;;;;;;;;19.45;26.96;94778.13;10484160;28;2524;-68
2024/01/16 13:26:24;;;;;;;;;;;;;;;19.47;26.08;94768.88;10484497;28;1589;-69
2024/01/16 13:31:24;;;;;;;;;;;;;;;19.48;26.03;94748.63;10479882;28;1526;-69
2024/01/16 13:36:26;;;;;;;;;;;;;;;19.48;25.70;94757.31;10480858;28;2890;-69
2024/01/16 13:41:27;;;;;;;;;;;;;;;19.45;25.56;94754.47;10485485;28;2104;-68
2024/01/16 13:46:27;;;;;;;;;;;;;;;19.43;25.75;94762.63;10481052;28;1439;-68
2024/01/16 13:51:28;;;;;;;;;;;;;;;19.47;25.90;94763.59;10477046;28;2021;-70
2024/01/16 13:56:28;;;;;;;;;;;;;;;19.45;25.97;94749.97;10477605;28;2882;-69
2024/01/16 14:01:28;;;;;;;;;;;;;;;19.47;25.56;94763.59;10481806;28;2177;-69
2024/01/16 14:06:29;;;;;;;;;;;;;;;19.45;25.77;94757.88;10460136;28;2314;-70
2024/01/16 14:11:29;;;;;;;;;;;;;;;19.50;26.39;94757.00;10520275;28;1479;-68
2024/01/16 14:16:29;;;;;;;;;;;;;;;19.51;26.88;94769.09;10488927;28;1906;-70
2024/01/16 14:21:30;;;;;;;;;;;;;;;19.51;26.44;94763.84;10490300;28;2870;-68
2024/01/16 14:26:30;;;;;;;;;;;;;;;19.51;25.78;94757.78;10491373;28;2076;-68
2024/01/16 14:31:30;;;;;;;;;;;;;;;19.51;25.95;94752.53;10490606;28;1591;-70
2024/01/16 14:36:31;;;;;;;;;;;;;;;19.49;25.83;94761.47;10490616;28;2540;-70
2024/01/16 14:41:32;;;;;;;;;;;;;;;19.52;25.54;94754.06;10490457;28;1552;-69
2024/01/16 14:46:33;;;;;;;;;;;;;;;19.51;25.84;94747.28;10472477;28;2944;-68
2024/01/16 14:51:33;;;;;;;;;;;;;;;19.52;26.95;94741.72;10490281;28;1929;-70
2024/01/16 14:56:33;;;;;;;;;;;;;;;19.54;26.23;94734.31;10494285;28;1898;-70
2024/01/16 15:01:33;;;;;;;;;;;;;;;19.52;26.04;94744.34;10488571;28;1812;-70
2024/01/16 15:06:34;;;;;;;;;;;;;;;19.52;25.97;94739.09;10491783;28;1505;-70
2024/01/16 15:11:34;;;;;;;;;;;;;;;19.54;25.95;94734.31;10492443;28;1564;-69
2024/01/16 15:16:35;;;;;;;;;;;;;;;19.56;25.55;94741.94;10485641;28;1971;-70
2024/01/16 15:21:36;;;;;;;;;;;;;;;19.56;26.00;94728.78;10491463;28;1766;-71
2024/01/16 15:26:37;;;;;;;;;;;;;;;19.58;26.22;94724.03;10489407;28;2529;-70
2024/01/16 15:31:37;;;;;;;;;;;;;;;19.58;25.64;94721.41;10494893;28;1558;-70
2024/01/16 15:36:37;;;;;;;;;;;;;;;19.57;25.70;94731.13;10492531;28;2448;-70
2024/01/16 15:41:37;;;;;;;;;;;;;;;19.57;25.60;94735.59;10488924;28;1631;-70
2024/01/16 15:46:56;;;;;;;;;;;;;;;19.54;25.79;94744.06;10489635;28;1443;-70
2024/01/16 15:51:59;;;;;;;;;;;;;;;19.52;25.87;94744.34;10487669;28;1493;-69
2024/01/16 15:56:59;;;;;;;;;;;;;;;19.53;25.90;94743.28;10489540;28;1975;-70
2024/01/16 16:01:59;;;;;;;;;;;;;;;19.51;25.90;94737.53;10492615;28;1482;-69
2024/01/16 16:07:00;;;;;;;;;;;;;;;19.53;26.02;94732.78;10486818;28;1446;-70
2024/01/16 16:12:00;;;;;;;;;;;;;;;19.58;26.15;94737.94;10491664;28;2668;-71
2024/01/16 16:17:02;;;;;;;;;;;;;;;19.61;25.34;94741.81;10492171;28;1910;-69
2024/01/16 16:22:06;;;;;;;;;;;;;;;19.64;25.14;94736.75;10485138;28;1455;-68
2024/01/16 16:27:28;;;;;;;;;;;;;;;19.67;25.13;94749.34;10486223;28;1570;-69
2024/01/16 16:32:29;;;;;;;;;;;;;;;19.74;25.40;94751.59;10486609;28;1609;-69
2024/01/16 16:37:30;;;;;;;;;;;;;;;19.78;25.31;94747.31;10481021;28;2346;-69
2024/01/16 16:42:30;;;;;;;;;;;;;;;19.84;25.09;94743.50;10488875;28;1462;-69
2024/01/16 16:47:31;;;;;;;;;;;;;;;19.83;24.94;94734.03;10489975;28;1458;-71
2024/01/16 16:52:31;;;;;;;;;;;;;;;19.85;24.78;94742.41;10483068;28;2490;-71
2024/01/16 16:57:31;;;;;;;;;;;;;;;19.85;24.76;94752.94;10517112;28;1969;-70
2024/01/16 17:02:32;;;;;;;;;;;;;;;19.88;24.76;94763.66;10490790;28;1558;-70
2024/01/16 17:07:32;;;;;;;;;;;;;;;19.89;24.62;94756.53;10487281;28;1672;-70
2024/01/16 17:12:33;;;;;;;;;;;;;;;19.90;24.75;94763.38;10485674;28;1424;-69
2024/01/16 17:17:34;;;;;;;;;;;;;;;19.90;24.75;94763.38;10486751;28;1969;-70
2024/01/16 17:22:35;;;;;;;;;;;;;;;19.92;24.54;94769.91;10484608;28;1454;-68
2024/01/16 17:27:37;;;;;;;;;;;;;;;19.98;25.35;94766.09;10479609;28;1420;-70
2024/01/16 17:32:38;;;;;;;;;;;;;;;20.04;24.85;94761.50;10484681;28;1564;-70
2024/01/16 17:37:38;;;;;;;;;;;;;;;20.04;24.86;94758.88;10468038;28;1991;-69
2024/01/16 17:42:39;;;;;;;;;;;;;;;20.06;24.43;94756.72;10489187;28;1497;-70
2024/01/16 17:47:39;;;;;;;;;;;;;;;20.02;24.67;94742.63;10489877;28;2467;-70
2024/01/16 17:52:39;;;;;;;;;;;;;;;20.00;24.98;94735.03;10489387;28;2054;-68
2024/01/16 17:57:40;;;;;;;;;;;;;;;20.05;26.17;94739.41;10502584;28;2989;-64
2024/01/16 18:02:41;;;;;;;;;;;;;;;20.13;24.81;94744.72;10502668;28;2024;-63
2024/01/16 18:07:41;;;;;;;;;;;;;;;20.12;24.84;94745.03;10489809;28;1447;-66
2024/01/16 18:12:41;;;;;;;;;;;;;;;20.17;25.24;94742.31;10492120;28;1399;-66
2024/01/16 18:17:44;;;;;;;;;;;;;;;20.21;25.54;94743.31;10487122;28;1975;-67
2024/01/16 18:22:44;;;;;;;;;;;;;;;20.16;24.79;94738.09;10486989;28;1414;-67
2024/01/16 18:27:45;;;;;;;;;;;;;;;20.17;24.69;94744.94;10500917;28;1501;-67
2024/01/16 18:32:46;;;;;;;;;;;;;;;20.16;24.72;94744.16;10497302;28;1609;-67
2024/01/16 18:37:46;;;;;;;;;;;;;;;20.18;24.83;94738.59;10492616;28;2268;-67
2024/01/16 18:42:47;;;;;;;;;;;;;;;20.16;24.89;94743.38;10488505;28;1553;-68
2024/01/16 18:47:50;;;;;;;;;;;;;;;20.15;24.69;94742.59;10490505;28;1846;-68
2024/01/16 18:52:54;;;;;;;;;;;;;;;20.14;24.64;94727.09;10490453;28;1527;-69
2024/01/16 18:58:01;;;;;;;;;;;;;;;20.15;24.70;94733.94;10496419;28;1951;-69
2024/01/16 19:03:01;;;;;;;;;;;;;;;20.15;24.74;94733.94;10489169;28;1497;-69
2024/01/16 19:08:04;;;;;;;;;;;;;;;20.13;24.68;94720.28;10485448;28;1459;-69
2024/01/16 19:13:06;;;;;;;;;;;;;;;20.15;24.68;94715.53;10485828;28;1549;-67
2024/01/16 19:18:06;;;;;;;;;;;;;;;20.10;24.57;94718.25;10488122;28;1909;-69
2024/01/16 19:23:06;;;;;;;;;;;;;;;20.16;24.45;94709.16;10479872;28;1684;-69
2024/01/16 19:28:07;;;;;;;;;;;;;;;20.10;24.63;94702.47;10486203;28;1470;-70
2024/01/16 19:33:08;;;;;;;;;;;;;;;20.12;24.61;94695.03;10493826;28;2579;-70
2024/01/16 19:38:08;;;;;;;;;;;;;;;20.13;24.35;94694.00;10489978;28;2612;-68
2024/01/16 19:43:08;;;;;;;;;;;;;;;20.12;24.62;94690.56;10519365;27;1465;-69
2024/01/16 19:48:12;;;;;;;;;;;;;;;20.15;24.45;94676.06;10489003;28;1680;-68
2024/01/16 19:53:14;;;;;;;;;;;;;;;20.14;24.50;94666.59;10487982;28;1485;-68
2024/01/16 19:58:15;;;;;;;;;;;;;;;20.12;25.02;94656.38;10486573;28;1915;-70
2024/01/16 20:03:15;;;;;;;;;;;;;;;20.18;24.29;94657.03;10474830;28;1686;-69
2024/01/16 20:08:15;;;;;;;;;;;;;;;20.16;24.60;94654.69;10485442;28;1477;-70
2024/01/16 20:13:16;;;;;;;;;;;;;;;20.15;24.41;94655.00;10485064;28;1513;-70
2024/01/16 20:18:16;;;;;;;;;;;;;;;20.16;24.58;94651.28;10484968;28;1910;-68
2024/01/16 20:23:16;;;;;;;;;;;;;;;20.17;24.36;94639.69;10486686;28;1482;-71
2024/01/16 20:28:17;;;;;;;;;;;;;;;20.16;24.20;94623.13;10487478;28;2561;-68
2024/01/16 20:33:17;;;;;;;;;;;;;;;20.17;24.38;94621.28;10483367;28;1481;-70
2024/01/16 20:38:17;;;;;;;;;;;;;;;20.14;24.62;94614.75;10485068;28;2263;-67
2024/01/16 20:43:18;;;;;;;;;;;;;;;20.14;24.39;94617.38;10513647;28;1545;-67
2024/01/16 20:48:18;;;;;;;;;;;;;;;20.14;24.49;94608.72;10484132;28;1615;-70
2024/01/16 20:53:20;;;;;;;;;;;;;;;20.13;24.26;94597.41;10487624;28;1640;-71
2024/01/16 20:58:20;;;;;;;;;;;;;;;20.12;24.42;94593.22;10490087;28;1909;-70
2024/01/16 21:03:22;;;;;;;;;;;;;;;20.13;24.29;94591.38;10479445;28;1502;-70
2024/01/16 21:08:23;;;;;;;;;;;;;;;20.14;24.38;94577.13;10490799;28;1498;-71
2024/01/16 21:13:26;;;;;;;;;;;;;;;20.12;24.17;94572.19;10491972;28;1490;-71
2024/01/16 21:18:28;;;;;;;;;;;;;;;20.12;24.42;94564.28;10490224;28;2443;-71
2024/01/16 21:23:28;;;;;;;;;;;;;;;20.09;24.53;94559.59;10480503;28;1557;-71
2024/01/16 21:28:29;;;;;;;;;;;;;;;20.12;24.24;94561.66;10494991;28;1635;-71
2024/01/16 21:33:32;;;;;;;;;;;;;;;20.11;24.24;94554.81;10483678;28;1640;-69
2024/01/16 21:38:34;;;;;;;;;;;;;;;20.12;24.12;94552.97;10484850;28;1925;-68
2024/01/16 21:43:35;;;;;;;;;;;;;;;20.12;24.45;94551.13;10480833;28;1618;-70
2024/01/16 21:48:35;;;;;;;;;;;;;;;20.09;24.54;94546.47;10484281;28;2794;-70
2024/01/16 21:53:36;;;;;;;;;;;;;;;20.12;24.22;94547.72;10465215;28;2875;-70
2024/01/16 21:58:36;;;;;;;;;;;;;;;20.09;24.60;94538.56;10469871;28;2953;-70
2024/01/16 22:03:37;;;;;;;;;;;;;;;20.05;24.58;94531.59;10495531;28;3029;-72
2024/01/16 22:08:37;;;;;;;;;;;;;;;20.00;24.82;94529.06;10474149;28;3044;-70
2024/01/16 22:13:37;;;;;;;;;;;;;;;19.96;25.24;94528.91;10465039;28;3000;-69
2024/01/16 22:18:38;;;;;;;;;;;;;;;19.92;25.70;94527.16;10464532;28;2973;-78
2024/01/16 22:23:38;;;;;;;;;;;;;;;19.89;25.54;94511.94;10465060;28;2974;-69
2024/01/16 22:28:43;;;;;;;;;;;;;;;19.87;25.34;94508.84;10450055;28;2934;-69
2024/01/16 22:33:43;;;;;;;;;;;;;;;19.82;25.78;94506.34;10471886;28;2918;-68
2024/01/16 22:38:46;;;;;;;;;;;;;;;19.78;25.92;94497.50;10474531;28;3102;-69
2024/01/16 22:43:46;;;;;;;;;;;;;;;19.72;26.08;94481.03;10476427;28;3085;-69
2024/01/16 22:48:46;;;;;;;;;;;;;;;19.75;24.82;94469.16;10474132;28;3064;-70
2024/01/16 22:53:47;;;;;;;;;;;;;;;19.70;25.68;94461.41;10486913;28;2938;-69
2024/01/16 22:58:47;;;;;;;;;;;;;;;19.69;25.45;94447.47;10474695;28;2969;-70
2024/01/16 23:03:49;;;;;;;;;;;;;;;19.67;24.97;94440.97;10493951;27;2986;-70
2024/01/16 23:08:49;;;;;;;;;;;;;;;19.61;25.28;94421.13;10474821;28;3018;-68
2024/01/16 23:13:53;;;;;;;;;;;;;;;19.64;24.94;94410.78;10473269;28;2958;-67
2024/01/16 23:18:53;;;;;;;;;;;;;;;19.64;25.04;94404.78;10470304;28;3046;-68
2024/01/16 23:23:53;;;;;;;;;;;;;;;19.59;25.34;94403.03;10469089;28;3084;-69
2024/01/16 23:28:53;;;;;;;;;;;;;;;19.60;24.93;94398.56;10473543;28;2881;-69
2024/01/16 23:33:54;;;;;;;;;;;;;;;19.60;24.82;94393.31;10472462;28;3048;-69
2024/01/16 23:38:54;;;;;;;;;;;;;;;19.61;24.75;94389.59;10472474;28;2890;-69
2024/01/16 23:43:54;;;;;;;;;;;;;;;19.58;24.86;94395.47;10471582;28;2975;-69
2024/01/16 23:48:55;;;;;;;;;;;;;;;19.54;25.16;94389.25;10471331;28;3050;-69
2024/01/16 23:53:55;;;;;;;;;;;;;;;19.55;24.80;94377.63;10465416;28;3010;-69
2024/01/16 23:58:56;;;;;;;;;;;;;;;19.54;24.72;94362.97;10469191;28;2909;-69
